Terminal Aerodrome Forecast
Issued by NWS Charleston, WV

Current Version | Previous Version | Text Only | Print | Product List | Glossary Off
Versions: 1 2 3 4 5 6 7 8 9 10 11 12 13 14 15 16 17 18 19 20 21 22 23 24 25 26 27 28 29 30 31

000
FTUS41 KRLX 250800 AAA
TAFBKW
TAF AMD
KBKW 250844Z 2509/2606 14006KT P6SM VCSH OVC050
     FM251200 14008G13KT 6SM SHRA OVC040
     FM251500 13010G16KT 3SM SHRA OVC020
     FM251800 14010G17KT P6SM BKN015
     FM260500 15006KT 4SM SHRA BR OVC008=

USA.gov is the U.S. government's official web portal to all federal, state and local government web resources and services.